Havana, Alabama
Current Conditions -  °F | °C
As of 12:53 PM on Thursday 27 Nov 2014 (Local Time) from KTCL Reporting Station
Overcast Overcast  
Wind Chill:   Ceiling: 3900
Heat Index:   Visibility: 10mi
Dew Point: -1°   Wind: 9mph
Humidity: 54%   Direction: 300°WNW
Pressure: 30.42"   Gusts: NA
Location:  32.9469°N, 87.5552°W
Report Text: KTCL 271853Z 30008KT 10SM OVC039 08/M01 A3042 RMK AO2 SLP300 T00781011
Loading
Personal Weather Stations






























Interactive Weather Map New forecast layout! Learn more

10-Day Weather Forecast

Advertisements
Track Severe Weather on mobile